sensor_id;sensor_type;location;lat;lon;timestamp;temperature;humidity
36352;DHT22;22382;44.768;17.206;2022-12-15T00:00:00;3.20;99.90
36352;DHT22;22382;44.768;17.206;2022-12-15T00:02:45;3.20;99.90
36352;DHT22;22382;44.768;17.206;2022-12-15T00:05:31;3.20;99.90
36352;DHT22;22382;44.768;17.206;2022-12-15T00:08:17;3.20;99.90
36352;DHT22;22382;44.768;17.206;2022-12-15T00:11:02;3.10;99.90
36352;DHT22;22382;44.768;17.206;2022-12-15T00:13:48;3.10;99.90
36352;DHT22;22382;44.768;17.206;2022-12-15T00:16:33;3.10;99.90
36352;DHT22;22382;44.768;17.206;2022-12-15T00:19:19;3.10;99.90
36352;DHT22;22382;44.768;17.206;2022-12-15T00:22:05;3.20;99.90
36352;DHT22;22382;44.768;17.206;2022-12-15T00:24:50;3.20;99.90
36352;DHT22;22382;44.768;17.206;2022-12-15T00:27:36;3.20;99.90
36352;DHT22;22382;44.768;17.206;2022-12-15T00:30:21;3.20;99.90
36352;DHT22;22382;44.768;17.206;2022-12-15T00:33:08;3.10;99.90
36352;DHT22;22382;44.768;17.206;2022-12-15T00:35:57;3.10;99.90
36352;DHT22;22382;44.768;17.206;2022-12-15T00:38:43;3.10;99.90
36352;DHT22;22382;44.768;17.206;2022-12-15T00:41:14;3.00;99.90
36352;DHT22;22382;44.768;17.206;2022-12-15T00:43:42;3.10;99.90
36352;DHT22;22382;44.768;17.206;2022-12-15T00:46:10;3.10;99.90
36352;DHT22;22382;44.768;17.206;2022-12-15T00:48:56;3.10;99.90
36352;DHT22;22382;44.768;17.206;2022-12-15T00:51:24;3.20;99.90
36352;DHT22;22382;44.768;17.206;2022-12-15T00:54:09;3.20;99.90
36352;DHT22;22382;44.768;17.206;2022-12-15T00:56:55;3.20;99.90
36352;DHT22;22382;44.768;17.206;2022-12-15T00:59:41;3.20;99.90
36352;DHT22;22382;44.768;17.206;2022-12-15T01:02:26;3.20;99.90
36352;DHT22;22382;44.768;17.206;2022-12-15T01:05:12;3.20;99.90
36352;DHT22;22382;44.768;17.206;2022-12-15T01:07:59;3.10;99.90
36352;DHT22;22382;44.768;17.206;2022-12-15T01:10:44;3.00;99.90
36352;DHT22;22382;44.768;17.206;2022-12-15T01:13:30;3.00;99.90
36352;DHT22;22382;44.768;17.206;2022-12-15T01:16:16;3.10;99.90
36352;DHT22;22382;44.768;17.206;2022-12-15T01:19:01;3.10;99.90
36352;DHT22;22382;44.768;17.206;2022-12-15T01:21:47;3.10;99.90
36352;DHT22;22382;44.768;17.206;2022-12-15T01:24:15;3.10;99.90
36352;DHT22;22382;44.768;17.206;2022-12-15T01:26:42;3.00;99.90
36352;DHT22;22382;44.768;17.206;2022-12-15T01:29:09;3.10;99.90
36352;DHT22;22382;44.768;17.206;2022-12-15T01:31:36;3.10;99.90
36352;DHT22;22382;44.768;17.206;2022-12-15T01:34:03;3.00;99.90
36352;DHT22;22382;44.768;17.206;2022-12-15T01:36:30;3.00;99.90
36352;DHT22;22382;44.768;17.206;2022-12-15T01:38:57;3.10;99.90
36352;DHT22;22382;44.768;17.206;2022-12-15T01:41:24;3.10;99.90
36352;DHT22;22382;44.768;17.206;2022-12-15T01:43:51;3.10;99.90
36352;DHT22;22382;44.768;17.206;2022-12-15T01:46:19;3.00;99.90
36352;DHT22;22382;44.768;17.206;2022-12-15T01:49:02;3.00;99.90
36352;DHT22;22382;44.768;17.206;2022-12-15T01:51:45;3.00;99.90
36352;DHT22;22382;44.768;17.206;2022-12-15T01:54:24;2.80;99.90
36352;DHT22;22382;44.768;17.206;2022-12-15T01:56:56;2.70;99.90
36352;DHT22;22382;44.768;17.206;2022-12-15T01:59:32;2.70;99.90
36352;DHT22;22382;44.768;17.206;2022-12-15T02:02:00;2.70;99.90
36352;DHT22;22382;44.768;17.206;2022-12-15T02:04:27;2.70;99.90
36352;DHT22;22382;44.768;17.206;2022-12-15T02:06:55;2.60;99.90
36352;DHT22;22382;44.768;17.206;2022-12-15T02:09:23;2.60;99.90
36352;DHT22;22382;44.768;17.206;2022-12-15T02:17:40;2.70;99.90
36352;DHT22;22382;44.768;17.206;2022-12-15T02:20:40;2.70;99.90
36352;DHT22;22382;44.768;17.206;2022-12-15T02:31:42;2.70;99.90
36352;DHT22;22382;44.768;17.206;2022-12-15T02:37:07;2.70;99.90
36352;DHT22;22382;44.768;17.206;2022-12-15T02:39:34;2.70;99.90
36352;DHT22;22382;44.768;17.206;2022-12-15T02:42:01;2.80;99.90
36352;DHT22;22382;44.768;17.206;2022-12-15T02:44:36;2.80;99.90
36352;DHT22;22382;44.768;17.206;2022-12-15T02:58:29;2.90;99.90
36352;DHT22;22382;44.768;17.206;2022-12-15T03:01:07;3.00;99.90
36352;DHT22;22382;44.768;17.206;2022-12-15T03:03:37;3.00;99.90
36352;DHT22;22382;44.768;17.206;2022-12-15T03:06:06;3.00;99.90
36352;DHT22;22382;44.768;17.206;2022-12-15T03:08:33;3.00;99.90
36352;DHT22;22382;44.768;17.206;2022-12-15T03:11:00;3.10;99.90
36352;DHT22;22382;44.768;17.206;2022-12-15T03:13:28;3.10;99.90
36352;DHT22;22382;44.768;17.206;2022-12-15T03:15:55;3.10;99.90
36352;DHT22;22382;44.768;17.206;2022-12-15T03:18:23;3.10;99.90
36352;DHT22;22382;44.768;17.206;2022-12-15T03:20:50;3.20;99.90
36352;DHT22;22382;44.768;17.206;2022-12-15T03:23:18;3.20;99.90
36352;DHT22;22382;44.768;17.206;2022-12-15T03:25:45;3.10;99.90
36352;DHT22;22382;44.768;17.206;2022-12-15T03:28:15;3.10;99.90
36352;DHT22;22382;44.768;17.206;2022-12-15T03:30:43;3.10;99.90
36352;DHT22;22382;44.768;17.206;2022-12-15T03:33:10;3.10;99.90
36352;DHT22;22382;44.768;17.206;2022-12-15T03:35:37;3.10;99.90
36352;DHT22;22382;44.768;17.206;2022-12-15T03:38:04;3.10;99.90
36352;DHT22;22382;44.768;17.206;2022-12-15T03:40:31;3.10;99.90
36352;DHT22;22382;44.768;17.206;2022-12-15T03:42:58;3.10;99.90
36352;DHT22;22382;44.768;17.206;2022-12-15T03:45:27;3.10;99.90
36352;DHT22;22382;44.768;17.206;2022-12-15T03:47:55;3.10;99.90
36352;DHT22;22382;44.768;17.206;2022-12-15T03:50:25;3.10;99.90
36352;DHT22;22382;44.768;17.206;2022-12-15T03:52:58;3.10;99.90
36352;DHT22;22382;44.768;17.206;2022-12-15T03:55:25;3.10;99.90
36352;DHT22;22382;44.768;17.206;2022-12-15T03:57:54;3.10;99.90
36352;DHT22;22382;44.768;17.206;2022-12-15T04:00:22;3.10;99.90
36352;DHT22;22382;44.768;17.206;2022-12-15T04:02:52;3.10;99.90
36352;DHT22;22382;44.768;17.206;2022-12-15T04:07:55;3.10;99.90
36352;DHT22;22382;44.768;17.206;2022-12-15T04:10:24;3.10;99.90
36352;DHT22;22382;44.768;17.206;2022-12-15T04:13:05;3.10;99.90
36352;DHT22;22382;44.768;17.206;2022-12-15T04:15:33;3.00;99.90
36352;DHT22;22382;44.768;17.206;2022-12-15T04:18:02;3.00;99.90
36352;DHT22;22382;44.768;17.206;2022-12-15T04:20:29;3.00;99.90
36352;DHT22;22382;44.768;17.206;2022-12-15T04:22:56;3.00;99.90
36352;DHT22;22382;44.768;17.206;2022-12-15T04:25:24;2.90;99.90
36352;DHT22;22382;44.768;17.206;2022-12-15T04:28:11;2.90;99.90
36352;DHT22;22382;44.768;17.206;2022-12-15T04:33:48;3.00;99.90
36352;DHT22;22382;44.768;17.206;2022-12-15T04:36:35;2.90;99.90
36352;DHT22;22382;44.768;17.206;2022-12-15T04:39:23;2.90;99.90
36352;DHT22;22382;44.768;17.206;2022-12-15T04:42:08;2.90;99.90
36352;DHT22;22382;44.768;17.206;2022-12-15T04:44:57;2.90;99.90
36352;DHT22;22382;44.768;17.206;2022-12-15T04:47:47;2.90;99.90
36352;DHT22;22382;44.768;17.206;2022-12-15T04:50:32;3.00;99.90
36352;DHT22;22382;44.768;17.206;2022-12-15T04:53:18;3.00;99.90
36352;DHT22;22382;44.768;17.206;2022-12-15T04:56:07;3.10;99.90
36352;DHT22;22382;44.768;17.206;2022-12-15T04:58:53;3.00;99.90
36352;DHT22;22382;44.768;17.206;2022-12-15T05:01:38;2.90;99.90
36352;DHT22;22382;44.768;17.206;2022-12-15T05:04:24;2.90;99.90
36352;DHT22;22382;44.768;17.206;2022-12-15T05:07:10;2.90;99.90
36352;DHT22;22382;44.768;17.206;2022-12-15T05:09:56;2.90;99.90
36352;DHT22;22382;44.768;17.206;2022-12-15T05:12:42;2.90;99.90
36352;DHT22;22382;44.768;17.206;2022-12-15T05:15:28;2.90;99.90
36352;DHT22;22382;44.768;17.206;2022-12-15T05:18:14;2.80;99.90
36352;DHT22;22382;44.768;17.206;2022-12-15T05:21:00;2.70;99.90
36352;DHT22;22382;44.768;17.206;2022-12-15T05:23:45;2.60;99.90
36352;DHT22;22382;44.768;17.206;2022-12-15T05:26:31;2.60;99.90
36352;DHT22;22382;44.768;17.206;2022-12-15T05:29:19;2.60;99.90
36352;DHT22;22382;44.768;17.206;2022-12-15T05:32:06;2.60;99.90
36352;DHT22;22382;44.768;17.206;2022-12-15T05:34:34;2.50;99.90
36352;DHT22;22382;44.768;17.206;2022-12-15T05:37:03;2.50;99.90
36352;DHT22;22382;44.768;17.206;2022-12-15T05:39:30;2.50;99.90
36352;DHT22;22382;44.768;17.206;2022-12-15T05:41:57;2.40;99.90
36352;DHT22;22382;44.768;17.206;2022-12-15T05:44:25;2.40;99.90
36352;DHT22;22382;44.768;17.206;2022-12-15T05:46:52;2.40;99.90
36352;DHT22;22382;44.768;17.206;2022-12-15T05:49:19;2.60;99.90
36352;DHT22;22382;44.768;17.206;2022-12-15T05:51:47;2.60;99.90
36352;DHT22;22382;44.768;17.206;2022-12-15T05:54:17;2.50;99.90
36352;DHT22;22382;44.768;17.206;2022-12-15T05:56:44;2.60;99.90
36352;DHT22;22382;44.768;17.206;2022-12-15T05:59:12;2.50;99.90
36352;DHT22;22382;44.768;17.206;2022-12-15T06:01:39;2.60;99.90
36352;DHT22;22382;44.768;17.206;2022-12-15T06:04:06;2.60;99.90
36352;DHT22;22382;44.768;17.206;2022-12-15T06:06:33;2.60;99.90
36352;DHT22;22382;44.768;17.206;2022-12-15T06:09:00;2.70;99.90
36352;DHT22;22382;44.768;17.206;2022-12-15T06:11:27;2.70;99.90
36352;DHT22;22382;44.768;17.206;2022-12-15T06:13:55;2.70;99.90
36352;DHT22;22382;44.768;17.206;2022-12-15T06:16:23;2.70;99.90
36352;DHT22;22382;44.768;17.206;2022-12-15T06:18:56;2.80;99.90
36352;DHT22;22382;44.768;17.206;2022-12-15T06:21:27;2.80;99.90
36352;DHT22;22382;44.768;17.206;2022-12-15T06:23:55;2.90;99.90
36352;DHT22;22382;44.768;17.206;2022-12-15T06:26:26;2.90;99.90
36352;DHT22;22382;44.768;17.206;2022-12-15T06:28:57;2.90;99.90
36352;DHT22;22382;44.768;17.206;2022-12-15T06:31:24;2.90;99.90
36352;DHT22;22382;44.768;17.206;2022-12-15T06:33:52;2.80;99.90
36352;DHT22;22382;44.768;17.206;2022-12-15T06:36:27;2.90;99.90
36352;DHT22;22382;44.768;17.206;2022-12-15T06:39:01;2.90;99.90
36352;DHT22;22382;44.768;17.206;2022-12-15T06:41:29;2.90;99.90
36352;DHT22;22382;44.768;17.206;2022-12-15T06:43:57;2.90;99.90
36352;DHT22;22382;44.768;17.206;2022-12-15T06:46:25;2.90;99.90
36352;DHT22;22382;44.768;17.206;2022-12-15T06:48:53;2.80;99.90
36352;DHT22;22382;44.768;17.206;2022-12-15T06:51:20;2.80;99.90
36352;DHT22;22382;44.768;17.206;2022-12-15T06:53:48;2.70;99.90
36352;DHT22;22382;44.768;17.206;2022-12-15T06:56:19;2.70;99.90
36352;DHT22;22382;44.768;17.206;2022-12-15T06:58:48;2.80;99.90
36352;DHT22;22382;44.768;17.206;2022-12-15T07:01:16;2.80;99.90
36352;DHT22;22382;44.768;17.206;2022-12-15T07:03:44;2.80;99.90
36352;DHT22;22382;44.768;17.206;2022-12-15T07:06:13;2.80;99.90
36352;DHT22;22382;44.768;17.206;2022-12-15T07:08:42;2.90;99.90
36352;DHT22;22382;44.768;17.206;2022-12-15T07:11:11;2.90;99.90
36352;DHT22;22382;44.768;17.206;2022-12-15T07:13:39;3.00;99.90
36352;DHT22;22382;44.768;17.206;2022-12-15T07:16:07;3.00;99.90
36352;DHT22;22382;44.768;17.206;2022-12-15T07:18:35;3.10;99.90
36352;DHT22;22382;44.768;17.206;2022-12-15T07:21:04;3.20;99.90
36352;DHT22;22382;44.768;17.206;2022-12-15T07:23:32;3.10;99.90
36352;DHT22;22382;44.768;17.206;2022-12-15T07:26:19;3.20;99.90
36352;DHT22;22382;44.768;17.206;2022-12-15T07:28:46;3.20;99.90
36352;DHT22;22382;44.768;17.206;2022-12-15T07:31:13;3.20;99.90
36352;DHT22;22382;44.768;17.206;2022-12-15T07:33:41;3.30;99.90
36352;DHT22;22382;44.768;17.206;2022-12-15T07:36:08;3.30;99.90
36352;DHT22;22382;44.768;17.206;2022-12-15T07:38:36;3.40;99.90
36352;DHT22;22382;44.768;17.206;2022-12-15T07:41:05;3.40;99.90
36352;DHT22;22382;44.768;17.206;2022-12-15T07:43:33;3.50;99.90
36352;DHT22;22382;44.768;17.206;2022-12-15T07:46:02;3.50;99.90
36352;DHT22;22382;44.768;17.206;2022-12-15T07:48:29;3.50;99.90
36352;DHT22;22382;44.768;17.206;2022-12-15T07:50:57;3.60;99.90
36352;DHT22;22382;44.768;17.206;2022-12-15T07:53:35;3.60;99.90
36352;DHT22;22382;44.768;17.206;2022-12-15T07:56:04;3.70;99.90
36352;DHT22;22382;44.768;17.206;2022-12-15T07:58:33;3.60;99.90
36352;DHT22;22382;44.768;17.206;2022-12-15T08:01:07;3.70;99.90
36352;DHT22;22382;44.768;17.206;2022-12-15T08:03:35;3.80;99.90
36352;DHT22;22382;44.768;17.206;2022-12-15T08:06:04;3.70;99.90
36352;DHT22;22382;44.768;17.206;2022-12-15T08:08:32;3.70;99.90
36352;DHT22;22382;44.768;17.206;2022-12-15T08:11:08;3.80;99.90
36352;DHT22;22382;44.768;17.206;2022-12-15T08:13:37;3.90;99.90
36352;DHT22;22382;44.768;17.206;2022-12-15T08:16:24;4.10;99.90
36352;DHT22;22382;44.768;17.206;2022-12-15T08:18:51;4.20;99.90
36352;DHT22;22382;44.768;17.206;2022-12-15T08:21:19;4.30;99.90
36352;DHT22;22382;44.768;17.206;2022-12-15T08:23:46;4.30;99.90
36352;DHT22;22382;44.768;17.206;2022-12-15T08:26:15;4.40;99.90
36352;DHT22;22382;44.768;17.206;2022-12-15T08:28:43;4.40;99.90
36352;DHT22;22382;44.768;17.206;2022-12-15T08:31:15;4.50;99.90
36352;DHT22;22382;44.768;17.206;2022-12-15T08:33:44;4.40;99.90
36352;DHT22;22382;44.768;17.206;2022-12-15T08:36:13;4.40;99.90
36352;DHT22;22382;44.768;17.206;2022-12-15T08:38:41;4.60;99.90
36352;DHT22;22382;44.768;17.206;2022-12-15T08:41:14;4.80;99.90
36352;DHT22;22382;44.768;17.206;2022-12-15T08:43:42;4.90;99.90
36352;DHT22;22382;44.768;17.206;2022-12-15T08:46:29;4.90;99.90
36352;DHT22;22382;44.768;17.206;2022-12-15T08:48:57;4.90;99.90
36352;DHT22;22382;44.768;17.206;2022-12-15T08:51:26;4.90;99.90
36352;DHT22;22382;44.768;17.206;2022-12-15T08:53:55;4.90;99.90
36352;DHT22;22382;44.768;17.206;2022-12-15T08:56:23;4.90;99.90
36352;DHT22;22382;44.768;17.206;2022-12-15T08:59:00;5.00;99.90
36352;DHT22;22382;44.768;17.206;2022-12-15T09:01:28;5.00;99.90
36352;DHT22;22382;44.768;17.206;2022-12-15T09:03:57;5.00;99.90
36352;DHT22;22382;44.768;17.206;2022-12-15T09:06:27;5.00;99.90
36352;DHT22;22382;44.768;17.206;2022-12-15T09:09:00;5.00;99.90
36352;DHT22;22382;44.768;17.206;2022-12-15T09:11:28;5.00;99.90
36352;DHT22;22382;44.768;17.206;2022-12-15T09:13:55;5.10;99.90
36352;DHT22;22382;44.768;17.206;2022-12-15T09:16:23;5.30;99.90
36352;DHT22;22382;44.768;17.206;2022-12-15T09:18:53;5.30;99.90
36352;DHT22;22382;44.768;17.206;2022-12-15T09:21:22;5.50;99.90
36352;DHT22;22382;44.768;17.206;2022-12-15T09:23:54;5.60;99.90
36352;DHT22;22382;44.768;17.206;2022-12-15T09:26:23;5.70;99.90
36352;DHT22;22382;44.768;17.206;2022-12-15T09:28:50;5.80;99.90
36352;DHT22;22382;44.768;17.206;2022-12-15T09:31:19;5.90;99.90
36352;DHT22;22382;44.768;17.206;2022-12-15T09:33:49;6.00;99.90
36352;DHT22;22382;44.768;17.206;2022-12-15T09:36:16;6.00;99.90
36352;DHT22;22382;44.768;17.206;2022-12-15T09:38:43;6.10;99.90
36352;DHT22;22382;44.768;17.206;2022-12-15T09:52:15;6.60;99.90
36352;DHT22;22382;44.768;17.206;2022-12-15T09:54:43;6.60;99.90
36352;DHT22;22382;44.768;17.206;2022-12-15T09:57:34;6.60;99.90
36352;DHT22;22382;44.768;17.206;2022-12-15T10:08:56;6.70;99.90
36352;DHT22;22382;44.768;17.206;2022-12-15T10:20:22;6.50;99.90
36352;DHT22;22382;44.768;17.206;2022-12-15T10:22:52;6.70;99.90
36352;DHT22;22382;44.768;17.206;2022-12-15T10:25:23;6.70;99.90
36352;DHT22;22382;44.768;17.206;2022-12-15T10:30:23;6.70;99.90
36352;DHT22;22382;44.768;17.206;2022-12-15T10:35:35;6.60;99.90
36352;DHT22;22382;44.768;17.206;2022-12-15T10:38:04;6.80;99.90
36352;DHT22;22382;44.768;17.206;2022-12-15T10:40:49;6.80;99.90
36352;DHT22;22382;44.768;17.206;2022-12-15T10:46:19;6.70;99.90
36352;DHT22;22382;44.768;17.206;2022-12-15T10:48:55;6.90;99.90
36352;DHT22;22382;44.768;17.206;2022-12-15T10:51:32;7.00;99.90
36352;DHT22;22382;44.768;17.206;2022-12-15T10:56:57;7.30;99.90
36352;DHT22;22382;44.768;17.206;2022-12-15T10:59:36;7.50;99.90
36352;DHT22;22382;44.768;17.206;2022-12-15T11:04:59;7.30;99.90
36352;DHT22;22382;44.768;17.206;2022-12-15T11:07:39;7.20;99.90
36352;DHT22;22382;44.768;17.206;2022-12-15T11:10:26;7.30;99.90
36352;DHT22;22382;44.768;17.206;2022-12-15T11:13:20;7.20;99.90
36352;DHT22;22382;44.768;17.206;2022-12-15T11:15:52;7.20;99.90
36352;DHT22;22382;44.768;17.206;2022-12-15T11:18:52;7.00;99.90
36352;DHT22;22382;44.768;17.206;2022-12-15T11:21:31;6.90;99.90
36352;DHT22;22382;44.768;17.206;2022-12-15T11:24:19;6.90;99.90
36352;DHT22;22382;44.768;17.206;2022-12-15T11:26:53;6.90;99.90
36352;DHT22;22382;44.768;17.206;2022-12-15T11:31:52;6.80;99.90
36352;DHT22;22382;44.768;17.206;2022-12-15T11:34:34;7.00;99.90
36352;DHT22;22382;44.768;17.206;2022-12-15T11:50:59;7.60;99.90
36352;DHT22;22382;44.768;17.206;2022-12-15T11:56:38;8.10;99.90
36352;DHT22;22382;44.768;17.206;2022-12-15T12:04:45;8.80;99.90
36352;DHT22;22382;44.768;17.206;2022-12-15T12:07:46;9.10;99.90
36352;DHT22;22382;44.768;17.206;2022-12-15T12:10:36;8.90;99.90
36352;DHT22;22382;44.768;17.206;2022-12-15T12:13:22;8.70;99.90
36352;DHT22;22382;44.768;17.206;2022-12-15T12:18:50;8.50;99.90
36352;DHT22;22382;44.768;17.206;2022-12-15T12:21:44;8.50;99.90
36352;DHT22;22382;44.768;17.206;2022-12-15T12:24:28;8.30;99.90
36352;DHT22;22382;44.768;17.206;2022-12-15T12:27:03;8.10;99.90
36352;DHT22;22382;44.768;17.206;2022-12-15T12:29:52;8.10;99.90
36352;DHT22;22382;44.768;17.206;2022-12-15T12:32:45;8.00;99.90
36352;DHT22;22382;44.768;17.206;2022-12-15T12:38:09;7.90;99.90
36352;DHT22;22382;44.768;17.206;2022-12-15T12:43:20;7.90;99.90
36352;DHT22;22382;44.768;17.206;2022-12-15T12:45:58;7.90;99.90
36352;DHT22;22382;44.768;17.206;2022-12-15T12:48:37;7.90;99.90
36352;DHT22;22382;44.768;17.206;2022-12-15T12:53:46;7.80;99.90
36352;DHT22;22382;44.768;17.206;2022-12-15T12:56:39;7.80;99.90
36352;DHT22;22382;44.768;17.206;2022-12-15T13:05:02;7.60;99.90
36352;DHT22;22382;44.768;17.206;2022-12-15T13:07:37;7.50;99.90
36352;DHT22;22382;44.768;17.206;2022-12-15T13:12:49;7.60;99.90
36352;DHT22;22382;44.768;17.206;2022-12-15T13:18:14;7.70;99.90
36352;DHT22;22382;44.768;17.206;2022-12-15T13:20:42;7.80;99.90
36352;DHT22;22382;44.768;17.206;2022-12-15T13:44:43;7.90;99.90
36352;DHT22;22382;44.768;17.206;2022-12-15T13:47:21;8.00;99.90
36352;DHT22;22382;44.768;17.206;2022-12-15T13:52:45;7.90;99.90
36352;DHT22;22382;44.768;17.206;2022-12-15T13:55:38;8.00;99.90
36352;DHT22;22382;44.768;17.206;2022-12-15T14:00:51;8.00;99.90
36352;DHT22;22382;44.768;17.206;2022-12-15T14:03:18;8.00;99.90
36352;DHT22;22382;44.768;17.206;2022-12-15T14:05:52;8.00;99.90
36352;DHT22;22382;44.768;17.206;2022-12-15T14:08:21;8.00;99.90
36352;DHT22;22382;44.768;17.206;2022-12-15T14:10:54;7.90;99.90
36352;DHT22;22382;44.768;17.206;2022-12-15T14:13:28;7.90;99.90
36352;DHT22;22382;44.768;17.206;2022-12-15T14:16:03;7.90;99.90
36352;DHT22;22382;44.768;17.206;2022-12-15T14:18:35;7.80;99.90
36352;DHT22;22382;44.768;17.206;2022-12-15T14:21:21;7.80;99.90
36352;DHT22;22382;44.768;17.206;2022-12-15T14:23:48;7.80;99.90
36352;DHT22;22382;44.768;17.206;2022-12-15T14:26:35;7.80;99.90
36352;DHT22;22382;44.768;17.206;2022-12-15T14:29:04;7.80;99.90
36352;DHT22;22382;44.768;17.206;2022-12-15T14:31:32;7.70;99.90
36352;DHT22;22382;44.768;17.206;2022-12-15T14:34:04;7.60;99.90
36352;DHT22;22382;44.768;17.206;2022-12-15T14:36:32;7.50;99.90
36352;DHT22;22382;44.768;17.206;2022-12-15T14:39:02;7.40;99.90
36352;DHT22;22382;44.768;17.206;2022-12-15T14:41:31;7.30;99.90
36352;DHT22;22382;44.768;17.206;2022-12-15T14:44:03;7.30;99.90
36352;DHT22;22382;44.768;17.206;2022-12-15T14:46:50;7.20;99.90
36352;DHT22;22382;44.768;17.206;2022-12-15T14:49:29;7.10;99.90
36352;DHT22;22382;44.768;17.206;2022-12-15T14:52:02;7.00;99.90
36352;DHT22;22382;44.768;17.206;2022-12-15T14:54:34;7.00;99.90
36352;DHT22;22382;44.768;17.206;2022-12-15T14:57:12;6.90;99.90
36352;DHT22;22382;44.768;17.206;2022-12-15T14:59:42;6.90;99.90
36352;DHT22;22382;44.768;17.206;2022-12-15T15:02:25;6.80;99.90
36352;DHT22;22382;44.768;17.206;2022-12-15T15:04:59;6.80;99.90
36352;DHT22;22382;44.768;17.206;2022-12-15T15:07:30;6.70;99.90
36352;DHT22;22382;44.768;17.206;2022-12-15T15:09:59;6.60;99.90
36352;DHT22;22382;44.768;17.206;2022-12-15T15:12:43;6.50;99.90
36352;DHT22;22382;44.768;17.206;2022-12-15T15:15:15;6.40;99.90
36352;DHT22;22382;44.768;17.206;2022-12-15T15:25:56;6.20;99.90
36352;DHT22;22382;44.768;17.206;2022-12-15T15:28:27;6.20;99.90
36352;DHT22;22382;44.768;17.206;2022-12-15T15:30:59;6.10;99.90
36352;DHT22;22382;44.768;17.206;2022-12-15T15:33:32;6.10;99.90
36352;DHT22;22382;44.768;17.206;2022-12-15T15:36:01;6.00;99.90
36352;DHT22;22382;44.768;17.206;2022-12-15T15:38:31;6.00;99.90
36352;DHT22;22382;44.768;17.206;2022-12-15T15:43:40;5.90;99.90
36352;DHT22;22382;44.768;17.206;2022-12-15T15:46:15;5.90;99.90
36352;DHT22;22382;44.768;17.206;2022-12-15T15:48:54;5.80;99.90
36352;DHT22;22382;44.768;17.206;2022-12-15T15:51:24;5.80;99.90
36352;DHT22;22382;44.768;17.206;2022-12-15T15:53:52;5.80;99.90
36352;DHT22;22382;44.768;17.206;2022-12-15T15:56:20;5.70;99.90
36352;DHT22;22382;44.768;17.206;2022-12-15T15:58:47;5.80;99.90
36352;DHT22;22382;44.768;17.206;2022-12-15T16:01:14;5.70;99.90
36352;DHT22;22382;44.768;17.206;2022-12-15T16:03:41;5.70;99.90
36352;DHT22;22382;44.768;17.206;2022-12-15T16:06:26;5.70;99.90
36352;DHT22;22382;44.768;17.206;2022-12-15T16:08:53;5.70;99.90
36352;DHT22;22382;44.768;17.206;2022-12-15T16:11:21;5.70;99.90
36352;DHT22;22382;44.768;17.206;2022-12-15T16:13:48;5.80;99.90
36352;DHT22;22382;44.768;17.206;2022-12-15T16:16:18;5.80;99.90
36352;DHT22;22382;44.768;17.206;2022-12-15T16:18:46;5.80;99.90
36352;DHT22;22382;44.768;17.206;2022-12-15T16:21:15;5.70;99.90
36352;DHT22;22382;44.768;17.206;2022-12-15T16:23:43;5.70;99.90
36352;DHT22;22382;44.768;17.206;2022-12-15T16:26:18;5.70;99.90
36352;DHT22;22382;44.768;17.206;2022-12-15T16:28:48;5.70;99.90
36352;DHT22;22382;44.768;17.206;2022-12-15T16:31:27;5.70;99.90
36352;DHT22;22382;44.768;17.206;2022-12-15T16:34:04;5.70;99.90
36352;DHT22;22382;44.768;17.206;2022-12-15T16:36:32;5.70;99.90
36352;DHT22;22382;44.768;17.206;2022-12-15T16:39:01;5.80;99.90
36352;DHT22;22382;44.768;17.206;2022-12-15T16:41:28;5.80;99.90
36352;DHT22;22382;44.768;17.206;2022-12-15T16:43:55;5.80;99.90
36352;DHT22;22382;44.768;17.206;2022-12-15T16:46:22;5.80;99.90
36352;DHT22;22382;44.768;17.206;2022-12-15T16:48:49;5.80;99.90
36352;DHT22;22382;44.768;17.206;2022-12-15T16:51:47;5.80;99.90
36352;DHT22;22382;44.768;17.206;2022-12-15T16:54:33;5.80;99.90
36352;DHT22;22382;44.768;17.206;2022-12-15T16:57:00;5.80;99.90
36352;DHT22;22382;44.768;17.206;2022-12-15T16:59:27;5.90;99.90
36352;DHT22;22382;44.768;17.206;2022-12-15T17:02:00;5.90;99.90
36352;DHT22;22382;44.768;17.206;2022-12-15T17:04:28;5.90;99.90
36352;DHT22;22382;44.768;17.206;2022-12-15T17:06:55;5.90;99.90
36352;DHT22;22382;44.768;17.206;2022-12-15T17:09:22;6.00;99.90
36352;DHT22;22382;44.768;17.206;2022-12-15T17:11:51;6.00;99.90
36352;DHT22;22382;44.768;17.206;2022-12-15T17:14:18;6.00;99.90
36352;DHT22;22382;44.768;17.206;2022-12-15T17:16:45;5.90;99.90
36352;DHT22;22382;44.768;17.206;2022-12-15T17:19:12;5.90;99.90
36352;DHT22;22382;44.768;17.206;2022-12-15T17:21:48;5.90;99.90
36352;DHT22;22382;44.768;17.206;2022-12-15T17:24:18;5.90;99.90
36352;DHT22;22382;44.768;17.206;2022-12-15T17:26:46;5.90;99.90
36352;DHT22;22382;44.768;17.206;2022-12-15T17:29:22;5.90;99.90
36352;DHT22;22382;44.768;17.206;2022-12-15T17:31:51;5.90;99.90
36352;DHT22;22382;44.768;17.206;2022-12-15T17:34:27;5.90;99.90
36352;DHT22;22382;44.768;17.206;2022-12-15T17:36:57;5.90;99.90
36352;DHT22;22382;44.768;17.206;2022-12-15T17:39:25;5.90;99.90
36352;DHT22;22382;44.768;17.206;2022-12-15T17:41:53;5.90;99.90
36352;DHT22;22382;44.768;17.206;2022-12-15T17:44:34;6.00;99.90
36352;DHT22;22382;44.768;17.206;2022-12-15T17:47:05;6.00;99.90
36352;DHT22;22382;44.768;17.206;2022-12-15T17:49:34;6.00;99.90
36352;DHT22;22382;44.768;17.206;2022-12-15T17:54:50;6.00;99.90
36352;DHT22;22382;44.768;17.206;2022-12-15T17:57:17;6.00;99.90
36352;DHT22;22382;44.768;17.206;2022-12-15T17:59:44;6.00;99.90
36352;DHT22;22382;44.768;17.206;2022-12-15T18:02:12;6.00;99.90
36352;DHT22;22382;44.768;17.206;2022-12-15T18:04:41;6.10;99.90
36352;DHT22;22382;44.768;17.206;2022-12-15T18:07:20;6.10;99.90
36352;DHT22;22382;44.768;17.206;2022-12-15T18:09:49;6.00;99.90
36352;DHT22;22382;44.768;17.206;2022-12-15T18:12:22;6.10;99.90
36352;DHT22;22382;44.768;17.206;2022-12-15T18:14:50;6.10;99.90
36352;DHT22;22382;44.768;17.206;2022-12-15T18:17:18;6.10;99.90
36352;DHT22;22382;44.768;17.206;2022-12-15T18:19:45;6.10;99.90
36352;DHT22;22382;44.768;17.206;2022-12-15T18:22:21;6.10;99.90
36352;DHT22;22382;44.768;17.206;2022-12-15T18:24:50;6.10;99.90
36352;DHT22;22382;44.768;17.206;2022-12-15T18:27:26;6.10;99.90
36352;DHT22;22382;44.768;17.206;2022-12-15T18:29:54;6.10;99.90
36352;DHT22;22382;44.768;17.206;2022-12-15T18:32:24;6.20;99.90
36352;DHT22;22382;44.768;17.206;2022-12-15T18:34:53;6.20;99.90
36352;DHT22;22382;44.768;17.206;2022-12-15T18:37:21;6.20;99.90
36352;DHT22;22382;44.768;17.206;2022-12-15T18:39:49;6.20;99.90
36352;DHT22;22382;44.768;17.206;2022-12-15T18:42:19;6.20;99.90
36352;DHT22;22382;44.768;17.206;2022-12-15T18:44:48;6.10;99.90
36352;DHT22;22382;44.768;17.206;2022-12-15T18:47:17;6.00;99.90
36352;DHT22;22382;44.768;17.206;2022-12-15T18:49:45;6.00;99.90
36352;DHT22;22382;44.768;17.206;2022-12-15T18:52:17;6.00;99.90